createdAt,value
2019-02-15T00:00:46.066Z,79.31
2019-02-15T00:03:15.317Z,79.46
2019-02-15T00:05:44.181Z,79.57
2019-02-15T00:08:12.980Z,79.41
2019-02-15T00:10:41.864Z,79.08
2019-02-15T00:13:13.527Z,79.48
2019-02-15T00:15:41.627Z,80.22
2019-02-15T00:18:30.345Z,80.64
2019-02-15T00:21:18.312Z,80.25
2019-02-15T00:23:47.194Z,80.22
2019-02-15T00:26:16.734Z,79.90
2019-02-15T00:28:45.728Z,80.11
2019-02-15T00:31:17.679Z,80.32
2019-02-15T00:33:46.670Z,80.57
2019-02-15T00:36:15.473Z,80.73
2019-02-15T00:38:44.364Z,81.10
2019-02-15T00:41:13.153Z,79.37
2019-02-15T00:43:42.179Z,78.57
2019-02-15T00:46:30.184Z,78.84
2019-02-15T00:49:00.109Z,79.23
2019-02-15T00:51:45.277Z,79.62
2019-02-15T00:54:42.511Z,80.02
2019-02-15T00:57:30.527Z,79.99
2019-02-15T01:00:23.017Z,79.83
2019-02-15T01:03:03.006Z,80.52
2019-02-15T01:05:42.935Z,80.57
2019-02-15T01:08:25.140Z,80.32
2019-02-15T01:11:19.268Z,80.38
2019-02-15T01:13:48.238Z,81.30
2019-02-15T01:16:17.336Z,79.73
2019-02-15T01:18:46.249Z,79.15
2019-02-15T01:21:15.107Z,79.29
2019-02-15T01:23:44.006Z,79.92
2019-02-15T01:26:26.404Z,80.35
2019-02-15T01:29:14.389Z,79.98
2019-02-15T01:31:58.449Z,79.67
2019-02-15T01:34:45.178Z,79.85
2019-02-15T01:37:19.291Z,79.67
2019-02-15T01:40:15.411Z,79.83
2019-02-15T01:42:57.127Z,79.56
2019-02-15T01:45:30.710Z,79.87
2019-02-15T01:47:59.600Z,80.38
2019-02-15T01:50:28.472Z,80.38
2019-02-15T01:52:57.374Z,80.91
2019-02-15T01:55:26.177Z,80.61
2019-02-15T01:57:55.154Z,80.49
2019-02-15T02:00:26.657Z,80.60
2019-02-15T02:02:55.571Z,80.94
2019-02-15T02:05:24.931Z,80.71
2019-02-15T02:07:53.993Z,80.36
2019-02-15T02:10:22.856Z,80.52
2019-02-15T02:12:51.747Z,80.43
2019-02-15T02:15:20.752Z,80.52
2019-02-15T02:17:49.720Z,80.55
2019-02-15T02:20:18.701Z,80.43
2019-02-15T02:22:47.589Z,80.69
2019-02-15T02:25:16.412Z,80.75
2019-02-15T02:27:45.384Z,80.85
2019-02-15T02:30:14.859Z,80.77
2019-02-15T02:32:43.691Z,80.69
2019-02-15T02:35:12.661Z,81.09
2019-02-15T02:37:41.710Z,80.96
2019-02-15T02:40:10.687Z,81.11
2019-02-15T02:42:39.711Z,80.73
2019-02-15T02:45:08.725Z,80.80
2019-02-15T02:47:37.580Z,80.36
2019-02-15T02:50:06.634Z,80.50
2019-02-15T02:52:35.551Z,80.35
2019-02-15T02:55:04.569Z,80.42
2019-02-15T02:57:33.589Z,80.60
2019-02-15T03:00:02.546Z,80.62
2019-02-15T03:02:31.460Z,80.83
2019-02-15T03:05:00.542Z,80.96
2019-02-15T03:07:29.362Z,81.08
2019-02-15T03:09:58.346Z,81.15
2019-02-15T03:12:27.269Z,81.53
2019-02-15T03:14:56.093Z,81.46
2019-02-15T03:17:24.973Z,80.93
2019-02-15T03:19:53.846Z,80.17
2019-02-15T03:22:22.792Z,80.54
2019-02-15T03:24:51.842Z,80.77
2019-02-15T03:27:20.876Z,80.90
2019-02-15T03:29:49.703Z,81.28
2019-02-15T03:32:18.557Z,81.71
2019-02-15T03:34:47.552Z,81.73
2019-02-15T03:37:38.473Z,81.95
2019-02-15T03:40:20.873Z,81.93
2019-02-15T03:42:49.755Z,81.91
2019-02-15T03:45:18.777Z,82.07
2019-02-15T03:47:47.627Z,82.12
2019-02-15T03:50:16.517Z,82.22
2019-02-15T03:52:45.514Z,82.57
2019-02-15T03:55:14.429Z,82.24
2019-02-15T03:57:43.445Z,82.41
2019-02-15T04:00:13.155Z,82.53
2019-02-15T04:02:42.219Z,82.54
2019-02-15T04:05:11.269Z,82.51
2019-02-15T04:07:40.113Z,82.50
2019-02-15T04:10:09.534Z,82.57
2019-02-15T04:12:38.509Z,82.58
2019-02-15T04:15:07.569Z,82.43
2019-02-15T04:17:36.477Z,82.28
2019-02-15T04:20:06.602Z,82.34
2019-02-15T04:22:35.499Z,82.38
2019-02-15T04:25:04.572Z,82.33
2019-02-15T04:27:33.644Z,82.34
2019-02-15T04:30:02.571Z,82.31
2019-02-15T04:32:31.455Z,82.43
2019-02-15T04:35:00.323Z,82.46
2019-02-15T04:37:29.211Z,82.75
2019-02-15T04:39:58.131Z,82.80
2019-02-15T04:42:27.030Z,82.69
2019-02-15T04:44:55.917Z,82.42
2019-02-15T04:47:24.794Z,81.78
2019-02-15T04:49:53.617Z,81.93
2019-02-15T04:52:22.468Z,82.12
2019-02-15T04:54:51.332Z,82.18
2019-02-15T04:57:20.240Z,82.01
2019-02-15T04:59:49.232Z,81.94
2019-02-15T05:02:18.152Z,81.81
2019-02-15T05:04:47.155Z,82.00
2019-02-15T05:07:16.139Z,82.08
2019-02-15T05:09:45.253Z,81.99
2019-02-15T05:12:14.306Z,81.93
2019-02-15T05:14:52.506Z,82.27
2019-02-15T05:17:13.955Z,82.39
2019-02-15T05:19:42.874Z,82.62
2019-02-15T05:22:11.736Z,82.85
2019-02-15T05:24:40.761Z,82.22
2019-02-15T05:27:09.579Z,82.12
2019-02-15T05:29:38.394Z,82.32
2019-02-15T05:32:07.291Z,82.37
2019-02-15T05:34:36.255Z,82.27
2019-02-15T05:37:05.245Z,81.98
2019-02-15T05:39:34.270Z,81.99
2019-02-15T05:42:03.076Z,81.66
2019-02-15T05:44:32.775Z,81.88
2019-02-15T05:47:01.662Z,82.09
2019-02-15T05:49:30.543Z,82.20
2019-02-15T05:51:59.429Z,82.45
2019-02-15T05:54:28.380Z,82.81
2019-02-15T05:56:57.189Z,82.65
2019-02-15T05:59:26.234Z,82.61
2019-02-15T06:01:55.157Z,82.41
2019-02-15T06:04:24.194Z,82.43
2019-02-15T06:06:53.103Z,82.46
2019-02-15T06:09:22.004Z,82.51
2019-02-15T06:11:50.945Z,82.17
2019-02-15T06:14:19.771Z,81.79
2019-02-15T06:16:48.869Z,81.79
2019-02-15T06:19:17.768Z,82.06
2019-02-15T06:21:46.817Z,82.08
2019-02-15T06:24:15.792Z,82.04
2019-02-15T06:26:44.758Z,82.13
2019-02-15T06:29:13.693Z,81.98
2019-02-15T06:31:42.642Z,82.03
2019-02-15T06:34:11.532Z,81.98
2019-02-15T06:36:40.540Z,82.16
2019-02-15T06:39:09.553Z,82.29
2019-02-15T06:41:38.492Z,82.40
2019-02-15T06:44:07.362Z,82.26
2019-02-15T06:46:36.394Z,82.26
2019-02-15T06:49:05.391Z,83.15
2019-02-15T06:51:35.593Z,83.31
2019-02-15T06:54:04.679Z,82.66
2019-02-15T06:56:33.733Z,82.12
2019-02-15T06:59:22.963Z,81.68
2019-02-15T07:01:57.470Z,80.60
2019-02-15T07:04:51.327Z,79.80
2019-02-15T07:07:20.240Z,79.24
2019-02-15T07:09:49.312Z,77.97
2019-02-15T07:12:18.381Z,78.34
2019-02-15T07:14:47.444Z,78.29
2019-02-15T07:17:16.367Z,78.98
2019-02-15T07:19:45.349Z,79.64
2019-02-15T07:22:14.287Z,80.00
2019-02-15T07:24:43.184Z,80.27
2019-02-15T07:27:11.995Z,78.54
2019-02-15T07:29:40.956Z,78.49
2019-02-15T07:32:09.761Z,78.83
2019-02-15T07:34:38.677Z,79.12
2019-02-15T07:37:07.575Z,79.00
2019-02-15T07:39:36.619Z,77.65
2019-02-15T07:42:05.623Z,77.78
2019-02-15T07:44:34.524Z,77.71
2019-02-15T07:47:03.454Z,77.48
2019-02-15T07:49:32.382Z,77.11
2019-02-15T07:52:01.276Z,75.92
2019-02-15T07:54:30.224Z,75.26
2019-02-15T07:56:59.253Z,74.49
2019-02-15T07:59:28.282Z,74.14
2019-02-15T08:02:01.786Z,75.12
2019-02-15T08:04:27.766Z,74.24
2019-02-15T08:06:56.694Z,73.32
2019-02-15T08:09:25.663Z,73.58
2019-02-15T08:11:54.491Z,73.15
2019-02-15T08:14:23.423Z,73.44
2019-02-15T08:16:52.397Z,73.95
2019-02-15T08:19:21.442Z,73.47
2019-02-15T08:21:50.312Z,72.73
2019-02-15T08:24:19.284Z,72.42
2019-02-15T08:26:48.228Z,72.40
2019-02-15T08:29:17.233Z,72.49
2019-02-15T08:31:46.526Z,70.86
2019-02-15T08:34:15.868Z,70.44
2019-02-15T08:36:44.956Z,70.40
2019-02-15T08:39:14.072Z,71.03
2019-02-15T08:42:00.560Z,70.88
2019-02-15T08:44:14.070Z,70.35
2019-02-15T08:46:42.978Z,69.48
2019-02-15T08:49:11.879Z,70.19
2019-02-15T08:51:40.910Z,69.83
2019-02-15T08:54:09.839Z,69.57
2019-02-15T08:56:38.824Z,70.20
2019-02-15T08:59:07.656Z,67.91
2019-02-15T09:01:36.490Z,65.73
2019-02-15T09:04:05.532Z,66.14
2019-02-15T09:06:34.507Z,65.79
2019-02-15T09:09:04.983Z,64.72
2019-02-15T09:11:33.996Z,64.60
2019-02-15T09:14:03.666Z,63.95
2019-02-15T09:16:32.600Z,62.19
2019-02-15T09:19:01.464Z,61.36
2019-02-15T09:21:30.611Z,61.16
2019-02-15T09:23:59.484Z,61.61
2019-02-15T09:26:28.380Z,61.41
2019-02-15T09:29:00.648Z,61.68
2019-02-15T09:31:29.521Z,60.86
2019-02-15T09:33:58.469Z,60.93
2019-02-15T09:36:27.425Z,60.41
2019-02-15T09:38:56.324Z,60.45
2019-02-15T09:41:25.312Z,60.02
2019-02-15T09:43:54.772Z,59.78
2019-02-15T09:46:23.769Z,59.21
2019-02-15T09:48:52.654Z,58.83
2019-02-15T09:51:22.127Z,58.24
2019-02-15T09:53:51.040Z,57.69
2019-02-15T09:56:20.127Z,56.65
2019-02-15T09:58:48.939Z,56.57
2019-02-15T10:01:17.834Z,55.71
2019-02-15T10:03:46.953Z,55.19
2019-02-15T10:06:15.940Z,53.66
2019-02-15T10:08:44.970Z,52.96
2019-02-15T10:11:14.035Z,52.99
2019-02-15T10:13:43.331Z,53.28
2019-02-15T10:16:15.576Z,53.34
2019-02-15T10:18:44.508Z,52.74
2019-02-15T10:21:13.430Z,52.60
2019-02-15T10:23:42.331Z,52.33
2019-02-15T10:26:11.313Z,51.87
2019-02-15T10:28:40.382Z,51.53
2019-02-15T10:31:09.380Z,51.95
2019-02-15T10:33:38.200Z,51.37
2019-02-15T10:36:07.047Z,51.80
2019-02-15T10:38:35.856Z,51.43
2019-02-15T10:41:05.104Z,49.86
2019-02-15T10:43:33.947Z,50.14
2019-02-15T10:46:02.855Z,49.96
2019-02-15T10:48:31.756Z,49.66
2019-02-15T10:51:00.671Z,49.57
2019-02-15T10:53:29.563Z,49.45
2019-02-15T10:55:58.386Z,49.07
2019-02-15T10:58:27.309Z,49.18
2019-02-15T11:00:56.283Z,48.78
2019-02-15T11:03:25.152Z,49.13
2019-02-15T11:05:54.113Z,48.35
2019-02-15T11:08:22.967Z,48.44
2019-02-15T11:10:52.031Z,48.34
2019-02-15T11:13:20.933Z,47.60
2019-02-15T11:15:49.865Z,47.43
2019-02-15T11:18:18.673Z,47.33
2019-02-15T11:20:47.593Z,47.07
2019-02-15T11:23:16.387Z,47.14
2019-02-15T11:25:45.443Z,46.57
2019-02-15T11:28:14.262Z,46.65
2019-02-15T11:30:43.249Z,46.63
2019-02-15T11:33:12.129Z,46.65
2019-02-15T11:35:41.148Z,46.50
2019-02-15T11:38:10.209Z,46.98
2019-02-15T11:40:39.204Z,46.62
2019-02-15T11:43:08.202Z,46.60
2019-02-15T11:45:37.134Z,45.69
2019-02-15T11:48:06.056Z,46.49
2019-02-15T11:50:34.971Z,45.19
2019-02-15T11:53:04.021Z,45.04
2019-02-15T11:55:32.993Z,45.03
2019-02-15T11:58:01.975Z,45.16
2019-02-15T12:00:34.321Z,44.79
2019-02-15T12:03:03.175Z,44.27
2019-02-15T12:05:32.216Z,44.74
2019-02-15T12:08:01.157Z,44.30
2019-02-15T12:10:30.053Z,44.18
2019-02-15T12:12:59.108Z,44.14
2019-02-15T12:15:28.026Z,44.03
2019-02-15T12:17:57.075Z,43.63
2019-02-15T12:20:29.269Z,43.73
2019-02-15T12:22:58.267Z,43.41
2019-02-15T12:25:27.164Z,43.25
2019-02-15T12:27:56.205Z,43.56
2019-02-15T12:30:25.259Z,44.00
2019-02-15T12:32:54.091Z,44.26
2019-02-15T12:35:23.029Z,43.70
2019-02-15T12:37:51.858Z,43.06
2019-02-15T12:40:20.883Z,42.83
2019-02-15T12:42:49.907Z,42.47
2019-02-15T12:45:18.865Z,41.51
2019-02-15T12:47:47.974Z,41.31
2019-02-15T12:50:17.015Z,41.71
2019-02-15T12:52:46.089Z,41.83
2019-02-15T12:55:14.996Z,41.77
2019-02-15T12:57:43.874Z,42.17
2019-02-15T13:00:13.960Z,42.11
2019-02-15T13:02:42.921Z,41.93
2019-02-15T13:05:12.511Z,42.04
2019-02-15T13:07:41.591Z,41.90
2019-02-15T13:10:12.860Z,42.17
2019-02-15T13:12:41.681Z,41.81
2019-02-15T13:15:11.138Z,41.65
2019-02-15T13:17:40.319Z,41.94
2019-02-15T13:20:09.413Z,41.02
2019-02-15T13:22:38.411Z,40.87
2019-02-15T13:25:07.471Z,40.79
2019-02-15T13:27:36.297Z,41.17
2019-02-15T13:30:06.005Z,40.71
2019-02-15T13:32:35.004Z,39.94
2019-02-15T13:35:04.295Z,39.65
2019-02-15T13:37:33.218Z,39.84
2019-02-15T13:40:02.214Z,39.64
2019-02-15T13:42:31.146Z,39.06
2019-02-15T13:45:00.320Z,38.11
2019-02-15T13:47:34.576Z,37.79
2019-02-15T13:50:00.409Z,37.23
2019-02-15T13:52:29.464Z,36.54
2019-02-15T13:54:58.387Z,35.67
2019-02-15T13:57:27.801Z,35.24
2019-02-15T13:59:56.848Z,34.36
2019-02-15T14:02:25.791Z,32.57
2019-02-15T14:04:54.770Z,31.81
2019-02-15T14:07:23.668Z,31.50
2019-02-15T14:09:52.673Z,32.26
2019-02-15T14:12:21.669Z,30.73
2019-02-15T14:14:50.562Z,30.79
2019-02-15T14:17:19.539Z,31.56
2019-02-15T14:19:48.547Z,31.15
2019-02-15T14:22:17.481Z,31.03
2019-02-15T14:24:46.672Z,31.44
2019-02-15T14:27:15.507Z,31.98
2019-02-15T14:29:44.449Z,31.86
2019-02-15T14:32:14.162Z,31.91
2019-02-15T14:34:43.281Z,31.81
2019-02-15T14:37:12.227Z,32.48
2019-02-15T14:39:41.117Z,31.94
2019-02-15T14:42:10.086Z,31.61
2019-02-15T14:44:39.119Z,30.60
2019-02-15T14:47:07.899Z,31.21
2019-02-15T14:49:36.995Z,31.25
2019-02-15T14:52:06.032Z,30.96
2019-02-15T14:54:35.043Z,29.98
2019-02-15T14:57:03.869Z,30.40
2019-02-15T14:59:32.898Z,30.44
2019-02-15T15:02:01.943Z,29.93
2019-02-15T15:04:30.829Z,30.49
2019-02-15T15:06:59.830Z,30.99
2019-02-15T15:09:29.006Z,30.58
2019-02-15T15:11:58.124Z,30.83
2019-02-15T15:14:27.035Z,30.93
2019-02-15T15:16:56.004Z,30.22
2019-02-15T15:19:25.015Z,29.72
2019-02-15T15:21:53.931Z,30.09
2019-02-15T15:24:22.713Z,30.42
2019-02-15T15:26:51.660Z,30.70
2019-02-15T15:29:20.468Z,30.65
2019-02-15T15:31:49.384Z,30.90
2019-02-15T15:34:18.379Z,30.33
2019-02-15T15:36:47.290Z,30.43
2019-02-15T15:39:16.255Z,30.25
2019-02-15T15:41:45.201Z,29.56
2019-02-15T15:44:14.224Z,30.09
2019-02-15T15:46:43.132Z,30.23
2019-02-15T15:49:12.183Z,30.35
2019-02-15T15:51:41.078Z,30.66
2019-02-15T15:54:10.118Z,31.23
2019-02-15T15:56:38.967Z,31.05
2019-02-15T15:59:07.982Z,32.11
2019-02-15T16:01:36.949Z,32.78
2019-02-15T16:04:05.931Z,32.48
2019-02-15T16:06:34.939Z,33.04
2019-02-15T16:09:05.351Z,32.78
2019-02-15T16:11:34.361Z,33.70
2019-02-15T16:14:03.279Z,33.91
2019-02-15T16:16:32.307Z,34.82
2019-02-15T16:19:01.301Z,35.22
2019-02-15T16:21:30.237Z,35.99
2019-02-15T16:24:18.362Z,36.62
2019-02-15T16:26:47.417Z,37.77
2019-02-15T16:29:16.326Z,38.98
2019-02-15T16:31:45.177Z,38.86
2019-02-15T16:34:14.183Z,39.75
2019-02-15T16:36:43.069Z,40.46
2019-02-15T16:39:12.179Z,41.60
2019-02-15T16:41:47.530Z,42.08
2019-02-15T16:44:16.957Z,42.64
2019-02-15T16:46:45.993Z,41.90
2019-02-15T16:49:14.965Z,42.99
2019-02-15T16:51:43.910Z,43.85
2019-02-15T16:54:12.781Z,44.72
2019-02-15T16:56:41.600Z,44.99
2019-02-15T16:59:10.669Z,46.22
2019-02-15T17:01:39.766Z,46.46
2019-02-15T17:04:08.575Z,47.22
2019-02-15T17:06:37.632Z,47.86
2019-02-15T17:09:15.244Z,47.88
2019-02-15T17:11:44.338Z,49.02
2019-02-15T17:14:13.383Z,49.32
2019-02-15T17:16:42.297Z,49.14
2019-02-15T17:19:11.226Z,50.80
2019-02-15T17:21:40.214Z,51.28
2019-02-15T17:24:09.234Z,50.75
2019-02-15T17:26:38.368Z,51.10
2019-02-15T17:29:07.153Z,52.40
2019-02-15T17:31:36.073Z,53.46
2019-02-15T17:34:05.055Z,52.47
2019-02-15T17:36:34.516Z,52.43
2019-02-15T17:39:03.936Z,52.09
2019-02-15T17:41:32.861Z,51.32
2019-02-15T17:44:01.765Z,51.04
2019-02-15T17:46:30.734Z,50.04
2019-02-15T17:49:01.055Z,50.04
2019-02-15T17:51:30.283Z,50.47
2019-02-15T17:53:59.210Z,49.40
2019-02-15T17:56:28.228Z,49.71
2019-02-15T17:58:57.236Z,49.50
2019-02-15T18:01:26.559Z,49.20
2019-02-15T18:03:55.534Z,48.25
2019-02-15T18:06:24.516Z,47.77
2019-02-15T18:08:53.349Z,47.51
2019-02-15T18:11:22.312Z,47.71
2019-02-15T18:13:51.124Z,47.27
2019-02-15T18:16:20.396Z,47.73
2019-02-15T18:18:49.337Z,47.55
2019-02-15T18:21:18.368Z,47.50
2019-02-15T18:23:47.385Z,47.59
2019-02-15T18:26:16.448Z,47.50
2019-02-15T18:28:45.423Z,47.05
2019-02-15T18:31:16.422Z,47.70
2019-02-15T18:33:45.113Z,48.24
2019-02-15T18:36:14.939Z,49.11
2019-02-15T18:38:44.265Z,49.65
2019-02-15T18:41:13.909Z,50.53
2019-02-15T18:43:42.940Z,50.82
2019-02-15T18:46:11.923Z,51.47
2019-02-15T18:48:41.745Z,51.67
2019-02-15T18:51:11.408Z,52.00
2019-02-15T18:53:40.303Z,53.25
2019-02-15T18:56:09.300Z,55.10
2019-02-15T18:58:38.092Z,55.68
2019-02-15T19:01:07.153Z,57.07
2019-02-15T19:03:36.195Z,57.86
2019-02-15T19:06:05.452Z,58.76
2019-02-15T19:08:34.385Z,58.60
2019-02-15T19:11:03.742Z,58.49
2019-02-15T19:13:32.696Z,59.04
2019-02-15T19:16:01.793Z,57.90
2019-02-15T19:18:30.774Z,57.90
2019-02-15T19:20:59.780Z,58.81
2019-02-15T19:23:28.809Z,59.09
2019-02-15T19:25:58.042Z,59.61
2019-02-15T19:28:26.956Z,60.05
2019-02-15T19:30:56.293Z,60.90
2019-02-15T19:33:25.397Z,60.86
2019-02-15T19:35:54.557Z,61.21
2019-02-15T19:38:23.453Z,61.80
2019-02-15T19:40:52.340Z,62.67
2019-02-15T19:43:21.332Z,62.95
2019-02-15T19:45:52.228Z,63.25
2019-02-15T19:48:21.244Z,63.26
2019-02-15T19:50:50.230Z,63.86
2019-02-15T19:53:19.216Z,63.57
2019-02-15T19:55:48.101Z,63.55
2019-02-15T19:58:17.043Z,63.64
2019-02-15T20:00:45.904Z,63.94
2019-02-15T20:03:14.899Z,64.36
2019-02-15T20:05:44.368Z,64.41
2019-02-15T20:08:13.370Z,64.94
2019-02-15T20:10:42.357Z,64.57
2019-02-15T20:13:11.375Z,65.08
2019-02-15T20:15:40.409Z,64.90
2019-02-15T20:18:09.353Z,65.06
2019-02-15T20:20:38.362Z,64.16
2019-02-15T20:23:07.358Z,64.59
2019-02-15T20:25:36.539Z,65.05
2019-02-15T20:28:13.663Z,64.53
2019-02-15T20:30:36.293Z,64.65
2019-02-15T20:33:05.364Z,65.01
2019-02-15T20:35:34.440Z,65.32
2019-02-15T20:38:03.363Z,66.01
2019-02-15T20:40:32.431Z,65.91
2019-02-15T20:43:01.335Z,65.34
2019-02-15T20:45:30.257Z,65.62
2019-02-15T20:47:59.173Z,65.03
2019-02-15T20:50:28.095Z,65.27
2019-02-15T20:52:56.998Z,65.97
2019-02-15T20:55:26.546Z,66.37
2019-02-15T20:57:55.916Z,65.91
2019-02-15T21:00:25.192Z,65.43
2019-02-15T21:02:54.116Z,65.04
2019-02-15T21:05:22.937Z,66.01
2019-02-15T21:07:52.209Z,63.96
2019-02-15T21:10:21.196Z,64.77
2019-02-15T21:12:50.273Z,64.56
2019-02-15T21:15:19.093Z,65.56
2019-02-15T21:17:48.112Z,65.08
2019-02-15T21:20:16.886Z,66.14
2019-02-15T21:22:45.866Z,66.89
2019-02-15T21:25:14.887Z,66.06
2019-02-15T21:27:43.703Z,66.97
2019-02-15T21:30:13.851Z,66.36
2019-02-15T21:32:42.831Z,66.66
2019-02-15T21:35:11.929Z,66.62
2019-02-15T21:37:41.000Z,66.08
2019-02-15T21:40:11.744Z,66.06
2019-02-15T21:42:40.603Z,65.72
2019-02-15T21:45:10.300Z,66.50
2019-02-15T21:47:39.333Z,66.83
2019-02-15T21:50:16.702Z,67.31
2019-02-15T21:52:44.103Z,67.72
2019-02-15T21:55:10.424Z,68.03
2019-02-15T21:57:39.505Z,68.08
2019-02-15T22:00:11.467Z,67.83
2019-02-15T22:02:40.569Z,67.68
2019-02-15T22:05:09.568Z,67.58
2019-02-15T22:07:38.404Z,68.48
2019-02-15T22:10:07.935Z,68.48
2019-02-15T22:12:36.898Z,68.51
2019-02-15T22:15:06.600Z,68.46
2019-02-15T22:17:35.565Z,68.91
2019-02-15T22:20:04.982Z,68.28
2019-02-15T22:22:40.101Z,67.43
2019-02-15T22:25:09.396Z,67.98
2019-02-15T22:27:38.326Z,68.83
2019-02-15T22:30:09.330Z,69.58
2019-02-15T22:32:38.438Z,69.28
2019-02-15T22:35:07.740Z,69.26
2019-02-15T22:37:36.681Z,69.26
2019-02-15T22:40:26.507Z,70.76
2019-02-15T22:42:55.406Z,70.23
2019-02-15T22:45:24.397Z,70.51
2019-02-15T22:47:53.480Z,70.42
2019-02-15T22:50:22.511Z,70.47
2019-02-15T22:52:52.799Z,70.99
2019-02-15T22:55:21.673Z,71.68
2019-02-15T22:57:50.679Z,71.02
2019-02-15T23:00:31.387Z,71.28
2019-02-15T23:03:02.685Z,72.53
2019-02-15T23:05:31.688Z,72.39
2019-02-15T23:08:00.686Z,71.78
2019-02-15T23:10:29.559Z,72.84
2019-02-15T23:13:00.216Z,73.61
2019-02-15T23:15:29.303Z,74.17
2019-02-15T23:17:58.550Z,73.09
2019-02-15T23:20:27.510Z,73.12
2019-02-15T23:22:56.486Z,73.18
2019-02-15T23:25:25.520Z,73.63
2019-02-15T23:27:54.454Z,73.16
2019-02-15T23:30:23.375Z,73.62
2019-02-15T23:32:52.240Z,73.75
2019-02-15T23:35:21.144Z,72.93
2019-02-15T23:37:50.049Z,72.42
2019-02-15T23:40:19.066Z,74.22
2019-02-15T23:42:48.075Z,73.59
2019-02-15T23:45:17.095Z,73.41
2019-02-15T23:47:45.910Z,70.82
2019-02-15T23:50:15.007Z,72.21
2019-02-15T23:52:43.912Z,71.55
2019-02-15T23:55:12.970Z,71.74
2019-02-15T23:57:41.897Z,72.92
